Time;durP1;ratioP1;P1;durP2;ratioP2;P2;SDS_P1;SDS_P2;PMS_P1;PMS_P2;Temp;Humidity;BMP_temperature;BMP_pressure;BME280_temperature;BME280_humidity;BME280_pressure;Samples;Min_cycle;Max_cycle;Signal;HPM_P1;HPM_P2
2023/07/24 00:00:22;;;;;;;;;;;;;;;18.95;71.93;99609.45;104748;277;120748;-51
2023/07/24 00:03:15;;;;;;;;;;;;;;;18.91;72.00;99604.83;104296;277;105074;-51
2023/07/24 00:05:47;;;;;;;;;;;;;;;18.88;72.05;99611.98;104277;277;114721;-56
2023/07/24 00:08:19;;;;;;;;;;;;;;;18.86;72.24;99610.48;104307;277;95459;-56
2023/07/24 00:10:51;;;;;;;;;;;;;;;18.86;72.25;99607.80;104338;277;97094;-53
2023/07/24 00:13:24;;;;;;;;;;;;;;;18.85;72.37;99611.41;104335;277;120272;-53
2023/07/24 00:15:57;;;;;;;;;;;;;;;18.87;72.59;99612.13;104314;277;104575;-54
2023/07/24 00:18:30;;;;;;;;;;;;;;;18.89;72.54;99615.10;104331;277;113464;-55
2023/07/24 00:21:02;;;;;;;;;;;;;;;18.91;72.66;99617.36;104293;277;96106;-54
2023/07/24 00:23:34;;;;;;;;;;;;;;;18.95;72.66;99620.79;104737;277;98108;-53
2023/07/24 00:26:07;;;;;;;;;;;;;;;18.97;72.55;99622.49;104749;277;121839;-53
2023/07/24 00:28:39;;;;;;;;;;;;;;;19.05;71.85;99620.81;104287;277;106133;-53
2023/07/24 00:31:11;;;;;;;;;;;;;;;19.16;71.06;99623.34;104280;277;114900;-53
2023/07/24 00:33:43;;;;;;;;;;;;;;;19.28;70.57;99623.59;104744;277;95074;-52
2023/07/24 00:36:15;;;;;;;;;;;;;;;19.39;70.08;99624.16;104288;277;96996;-51
2023/07/24 00:38:48;;;;;;;;;;;;;;;19.48;69.58;99621.05;104287;277;119141;-56
2023/07/24 00:41:20;;;;;;;;;;;;;;;19.55;69.23;99621.85;104734;277;104601;-56
2023/07/24 00:43:52;;;;;;;;;;;;;;;19.59;68.74;99620.38;104727;281;115248;-54
2023/07/24 00:46:24;;;;;;;;;;;;;;;19.59;68.56;99623.94;104726;277;95002;-54
2023/07/24 00:48:57;;;;;;;;;;;;;;;19.62;68.19;99626.65;104779;277;97694;-56
2023/07/24 00:51:30;;;;;;;;;;;;;;;19.63;67.94;99627.02;104769;277;119614;-56
2023/07/24 00:54:04;;;;;;;;;;;;;;;19.64;67.83;99631.60;104760;277;104710;-54
2023/07/24 00:56:36;;;;;;;;;;;;;;;19.65;67.65;99625.30;104720;277;113694;-54
2023/07/24 00:59:08;;;;;;;;;;;;;;;19.67;67.40;99619.44;104732;277;95173;-52
2023/07/24 01:01:41;;;;;;;;;;;;;;;19.67;67.10;99619.27;104760;277;96458;-51
2023/07/24 01:04:14;;;;;;;;;;;;;;;19.67;67.07;99625.90;104273;277;120327;-56
2023/07/24 01:06:47;;;;;;;;;;;;;;;19.65;66.97;99628.95;104063;277;105726;-56
2023/07/24 01:09:19;;;;;;;;;;;;;;;19.65;66.84;99631.36;104315;277;115236;-54
2023/07/24 01:11:57;;;;;;;;;;;;;;;19.63;66.80;99635.98;104317;277;94691;-54
2023/07/24 01:14:35;;;;;;;;;;;;;;;19.60;66.76;99633.11;104325;277;96329;-56
2023/07/24 01:17:09;;;;;;;;;;;;;;;19.59;66.75;99631.55;104744;277;119639;-56
2023/07/24 01:19:44;;;;;;;;;;;;;;;19.58;66.64;99635.57;104332;277;105799;-55
2023/07/24 01:22:23;;;;;;;;;;;;;;;19.57;66.48;99635.79;104752;277;113943;-55
2023/07/24 01:25:11;;;;;;;;;;;;;;;19.55;66.40;99636.00;104296;277;93485;-53
2023/07/24 01:27:47;;;;;;;;;;;;;;;19.54;66.39;99636.73;104304;277;97733;-53
2023/07/24 01:30:23;;;;;;;;;;;;;;;19.52;66.30;99633.79;104281;277;120183;-53
2023/07/24 01:32:55;;;;;;;;;;;;;;;19.50;66.48;99638.08;104337;277;105385;-52
2023/07/24 01:35:28;;;;;;;;;;;;;;;19.48;66.41;99640.98;104293;277;114296;-57
2023/07/24 01:38:01;;;;;;;;;;;;;;;19.46;66.42;99638.30;104316;277;93645;-57
2023/07/24 01:40:34;;;;;;;;;;;;;;;19.46;66.16;99635.98;104769;277;98393;-56
2023/07/24 01:43:06;;;;;;;;;;;;;;;19.45;66.36;99633.30;104290;277;121129;-56
2023/07/24 01:45:38;;;;;;;;;;;;;;;19.43;66.15;99627.32;104294;277;105869;-54
2023/07/24 01:48:10;;;;;;;;;;;;;;;19.42;66.06;99628.07;104291;277;113476;-53
2023/07/24 01:50:42;;;;;;;;;;;;;;;19.39;66.17;99630.48;104306;277;93035;-52
2023/07/24 01:53:14;;;;;;;;;;;;;;;19.36;66.29;99627.38;104355;277;97790;-52
2023/07/24 01:55:47;;;;;;;;;;;;;;;19.34;66.29;99628.01;104303;277;120271;-51
2023/07/24 01:58:19;;;;;;;;;;;;;;;19.32;66.15;99621.98;104746;277;105785;-52
2023/07/24 02:00:51;;;;;;;;;;;;;;;19.33;66.10;99618.52;104278;277;114714;-53
2023/07/24 02:03:24;;;;;;;;;;;;;;;19.34;66.06;99616.21;104047;279;95513;-53
2023/07/24 02:05:56;;;;;;;;;;;;;;;19.33;66.01;99615.73;104311;277;97490;-54
2023/07/24 02:08:28;;;;;;;;;;;;;;;19.32;65.97;99612.42;104279;277;120884;-54
2023/07/24 02:11:00;;;;;;;;;;;;;;;19.31;65.98;99611.11;104275;265;106056;-56
2023/07/24 02:13:32;;;;;;;;;;;;;;;19.29;66.02;99609.02;104720;277;115975;-54
2023/07/24 02:16:05;;;;;;;;;;;;;;;19.26;65.89;99607.74;104717;281;94856;-53
2023/07/24 02:18:38;;;;;;;;;;;;;;;19.21;65.86;99607.73;104731;277;97568;-54
2023/07/24 02:21:10;;;;;;;;;;;;;;;19.16;65.81;99602.85;104732;277;120284;-55
2023/07/24 02:23:42;;;;;;;;;;;;;;;19.10;65.91;99606.44;104308;277;106147;-53
2023/07/24 02:26:14;;;;;;;;;;;;;;;19.03;65.88;99607.88;104319;277;113180;-52
2023/07/24 02:28:47;;;;;;;;;;;;;;;18.97;65.96;99609.47;104276;277;94687;-54
2023/07/24 02:31:19;;;;;;;;;;;;;;;18.90;66.06;99609.04;104312;277;96920;-54
2023/07/24 02:33:51;;;;;;;;;;;;;;;18.83;66.06;99611.66;104163;277;120704;-51
2023/07/24 02:36:23;;;;;;;;;;;;;;;18.79;66.12;99606.20;104159;279;105071;-51
2023/07/24 02:38:56;;;;;;;;;;;;;;;18.75;66.24;99604.23;104517;278;114277;-55
2023/07/24 02:41:28;;;;;;;;;;;;;;;18.73;65.96;99607.38;104104;279;94371;-56
2023/07/24 02:44:00;;;;;;;;;;;;;;;18.74;65.79;99610.11;104171;279;97854;-51
2023/07/24 02:46:32;;;;;;;;;;;;;;;18.75;65.62;99616.81;104527;279;120782;-51
2023/07/24 02:49:04;;;;;;;;;;;;;;;18.77;65.49;99617.92;104147;279;105491;-53
2023/07/24 02:51:37;;;;;;;;;;;;;;;18.81;65.38;99615.55;104081;279;114467;-53
2023/07/24 02:54:09;;;;;;;;;;;;;;;18.84;65.17;99616.39;104101;279;95529;-53
2023/07/24 02:56:41;;;;;;;;;;;;;;;18.89;65.06;99615.54;104124;279;97731;-53
2023/07/24 02:59:13;;;;;;;;;;;;;;;18.94;64.76;99619.42;104497;279;121022;-53
2023/07/24 03:01:45;;;;;;;;;;;;;;;19.00;64.44;99624.38;104104;279;105367;-53
2023/07/24 03:04:17;;;;;;;;;;;;;;;19.06;64.38;99625.31;104501;279;114950;-56
2023/07/24 03:06:50;;;;;;;;;;;;;;;19.11;64.05;99625.13;104071;278;93556;-56
2023/07/24 03:09:22;;;;;;;;;;;;;;;19.18;64.16;99623.20;104120;279;97494;-51
2023/07/24 03:11:54;;;;;;;;;;;;;;;19.26;63.89;99628.66;104069;278;119980;-51
2023/07/24 03:14:26;;;;;;;;;;;;;;;19.32;63.89;99629.80;104103;279;106130;-51
2023/07/24 03:16:58;;;;;;;;;;;;;;;19.37;63.66;99628.57;104530;279;113372;-51
2023/07/24 03:19:30;;;;;;;;;;;;;;;19.38;63.70;99627.35;104513;278;92413;-54
2023/07/24 03:22:02;;;;;;;;;;;;;;;19.38;63.54;99628.33;104099;279;98181;-54
2023/07/24 03:24:35;;;;;;;;;;;;;;;19.37;63.56;99632.95;104142;279;120174;-53
2023/07/24 03:27:07;;;;;;;;;;;;;;;19.36;63.58;99634.70;104525;279;105228;-53
2023/07/24 03:29:40;;;;;;;;;;;;;;;19.37;63.50;99637.23;103924;280;114816;-54
2023/07/24 03:32:14;;;;;;;;;;;;;;;19.38;63.40;99640.17;104509;278;94172;-54
2023/07/24 03:34:46;;;;;;;;;;;;;;;19.39;63.50;99643.13;104138;278;97750;-56
2023/07/24 03:37:18;;;;;;;;;;;;;;;19.42;63.44;99644.30;104086;279;121717;-56
2023/07/24 03:39:51;;;;;;;;;;;;;;;19.43;63.53;99645.19;104101;278;104160;-56
2023/07/24 03:42:31;;;;;;;;;;;;;;;19.47;63.68;99644.71;104067;279;114147;-56
2023/07/24 03:45:03;;;;;;;;;;;;;;;19.52;63.90;99646.39;104081;278;93977;-54
2023/07/24 03:47:35;;;;;;;;;;;;;;;19.59;63.71;99648.83;104095;278;98364;-54
2023/07/24 03:50:09;;;;;;;;;;;;;;;19.66;63.69;99647.60;104113;278;121024;-54
2023/07/24 03:52:41;;;;;;;;;;;;;;;19.69;63.63;99645.25;104135;278;105033;-54
2023/07/24 03:55:13;;;;;;;;;;;;;;;19.75;63.36;99641.23;104542;278;114800;-56
2023/07/24 03:57:45;;;;;;;;;;;;;;;19.83;63.30;99643.52;104523;278;94611;-56
2023/07/24 04:00:18;;;;;;;;;;;;;;;20.03;63.09;99646.22;104081;279;97074;-54
2023/07/24 04:02:51;;;;;;;;;;;;;;;20.44;62.67;99648.66;104092;279;121139;-54
2023/07/24 04:05:23;;;;;;;;;;;;;;;20.57;62.41;99650.98;104110;279;105540;-54
2023/07/24 04:07:56;;;;;;;;;;;;;;;20.54;62.02;99644.61;104111;279;114731;-55
2023/07/24 04:10:28;;;;;;;;;;;;;;;20.46;61.98;99649.33;104533;279;93633;-52
2023/07/24 04:13:00;;;;;;;;;;;;;;;20.41;61.77;99646.09;104099;279;98085;-52
2023/07/24 04:15:32;;;;;;;;;;;;;;;20.37;61.69;99643.88;104084;279;120660;-50
2023/07/24 04:18:05;;;;;;;;;;;;;;;20.36;61.69;99641.30;104538;279;105905;-52
2023/07/24 04:20:37;;;;;;;;;;;;;;;20.39;61.67;99644.38;104105;278;115354;-56
2023/07/24 04:23:09;;;;;;;;;;;;;;;20.48;61.45;99644.77;104103;278;92356;-57
2023/07/24 04:25:41;;;;;;;;;;;;;;;20.55;61.69;99649.44;104104;278;97635;-53
2023/07/24 04:28:14;;;;;;;;;;;;;;;20.66;61.62;99652.92;104522;278;121585;-53
2023/07/24 04:30:46;;;;;;;;;;;;;;;20.78;61.22;99656.71;104084;279;105337;-52
2023/07/24 04:33:18;;;;;;;;;;;;;;;20.86;60.92;99654.63;104116;279;114267;-52
2023/07/24 04:35:51;;;;;;;;;;;;;;;21.00;60.84;99653.04;104091;279;93833;-56
2023/07/24 04:38:24;;;;;;;;;;;;;;;21.07;60.81;99654.70;103941;279;97950;-57
2023/07/24 04:40:57;;;;;;;;;;;;;;;21.09;60.54;99655.31;104498;279;121077;-55
2023/07/24 04:43:29;;;;;;;;;;;;;;;21.09;60.34;99653.50;104114;279;105097;-53
2023/07/24 04:46:01;;;;;;;;;;;;;;;21.08;60.35;99652.18;104088;279;114975;-53
2023/07/24 04:48:33;;;;;;;;;;;;;;;21.11;60.46;99650.46;104516;279;93701;-55
2023/07/24 04:51:05;;;;;;;;;;;;;;;21.21;60.07;99642.55;104533;279;96591;-55
2023/07/24 04:53:38;;;;;;;;;;;;;;;21.44;60.28;99648.61;104101;287;121640;-56
2023/07/24 04:56:10;;;;;;;;;;;;;;;21.65;60.25;99647.89;104095;279;105520;-56
2023/07/24 04:58:42;;;;;;;;;;;;;;;21.90;59.91;99645.61;104118;279;112319;-53
2023/07/24 05:01:14;;;;;;;;;;;;;;;22.13;59.51;99647.88;104090;278;93597;-52
2023/07/24 05:03:46;;;;;;;;;;;;;;;22.65;59.27;99645.58;104500;278;97343;-55
2023/07/24 05:06:18;;;;;;;;;;;;;;;23.29;58.46;99649.57;104471;279;121294;-55
2023/07/24 05:08:51;;;;;;;;;;;;;;;23.36;57.89;99649.55;104476;279;105865;-56
2023/07/24 05:11:23;;;;;;;;;;;;;;;23.55;57.44;99650.87;104491;278;113498;-56
2023/07/24 05:13:55;;;;;;;;;;;;;;;23.70;56.77;99649.66;104093;278;94463;-56
2023/07/24 05:16:27;;;;;;;;;;;;;;;23.43;56.39;99644.48;104541;278;97745;-57
2023/07/24 05:19:00;;;;;;;;;;;;;;;23.12;56.41;99639.92;103691;271;554431;-54
2023/07/24 05:21:32;;;;;;;;;;;;;;;22.78;56.58;99639.88;104544;278;105045;-54
2023/07/24 05:24:05;;;;;;;;;;;;;;;22.51;56.75;99645.19;104105;279;113411;-56
2023/07/24 05:26:37;;;;;;;;;;;;;;;22.30;56.85;99647.94;104080;279;92319;-57
2023/07/24 05:29:10;;;;;;;;;;;;;;;22.14;57.35;99649.80;104096;279;97649;-55
2023/07/24 05:31:42;;;;;;;;;;;;;;;22.01;57.81;99646.55;104104;279;121170;-55
2023/07/24 05:34:15;;;;;;;;;;;;;;;21.97;57.96;99646.91;104089;279;105300;-55
2023/07/24 05:36:47;;;;;;;;;;;;;;;21.95;58.20;99644.83;104097;283;113830;-55
2023/07/24 05:39:19;;;;;;;;;;;;;;;21.90;57.91;99650.41;104107;279;94751;-68
2023/07/24 05:41:51;;;;;;;;;;;;;;;21.85;57.81;99653.53;104140;279;96522;-59
2023/07/24 05:44:24;;;;;;;;;;;;;;;21.79;57.91;99657.79;104097;274;122294;-55
2023/07/24 05:46:56;;;;;;;;;;;;;;;21.76;58.16;99657.02;104140;279;105923;-54
2023/07/24 05:49:29;;;;;;;;;;;;;;;21.75;58.01;99659.68;104503;279;113356;-54
2023/07/24 05:52:01;;;;;;;;;;;;;;;21.76;58.08;99663.30;104080;279;93038;-55
2023/07/24 05:54:34;;;;;;;;;;;;;;;21.80;58.28;99669.06;104534;279;96873;-56
2023/07/24 05:57:07;;;;;;;;;;;;;;;21.80;58.34;99677.04;104080;279;120344;-57
2023/07/24 05:59:39;;;;;;;;;;;;;;;21.81;58.45;99679.06;104108;279;104747;-54
2023/07/24 06:02:11;;;;;;;;;;;;;;;21.88;58.04;99675.66;104115;279;114896;-53
2023/07/24 06:04:45;;;;;;;;;;;;;;;21.97;58.33;99679.87;104095;279;94159;-52
2023/07/24 06:07:18;;;;;;;;;;;;;;;21.97;58.01;99677.44;104080;278;97110;-52
2023/07/24 06:09:50;;;;;;;;;;;;;;;21.87;58.00;99670.98;104093;279;122335;-55
2023/07/24 06:12:22;;;;;;;;;;;;;;;21.76;58.20;99668.58;104092;278;105395;-55
2023/07/24 06:14:55;;;;;;;;;;;;;;;21.67;58.13;99676.09;104076;279;114202;-55
2023/07/24 06:17:27;;;;;;;;;;;;;;;21.65;58.12;99678.41;104105;279;94516;-53
2023/07/24 06:20:00;;;;;;;;;;;;;;;21.65;58.03;99680.10;104116;282;97276;-54
2023/07/24 06:22:32;;;;;;;;;;;;;;;21.73;58.20;99672.93;104087;279;120826;-56
2023/07/24 06:25:05;;;;;;;;;;;;;;;21.77;58.18;99665.89;104506;278;104073;-54
2023/07/24 06:27:37;;;;;;;;;;;;;;;21.84;58.55;99664.65;104095;279;114622;-54
2023/07/24 06:30:13;;;;;;;;;;;;;;;21.97;58.84;99664.02;104516;279;95170;-56
2023/07/24 06:32:45;;;;;;;;;;;;;;;22.09;59.06;99661.83;104088;279;97419;-57
2023/07/24 06:35:18;;;;;;;;;;;;;;;22.16;59.15;99665.97;104105;279;121291;-54
2023/07/24 06:37:52;;;;;;;;;;;;;;;22.28;59.29;99667.39;104111;279;106342;-53
2023/07/24 06:40:25;;;;;;;;;;;;;;;22.41;59.38;99657.79;103932;279;114683;-66
2023/07/24 06:42:57;;;;;;;;;;;;;;;22.51;58.85;99657.46;104114;279;93610;-66
2023/07/24 06:45:30;;;;;;;;;;;;;;;22.60;59.03;99659.45;104530;279;98094;-67
2023/07/24 06:48:03;;;;;;;;;;;;;;;22.61;58.63;99674.13;104097;279;121325;-67
2023/07/24 06:50:37;;;;;;;;;;;;;;;22.51;58.84;99677.60;104093;278;104876;-67
2023/07/24 06:53:09;;;;;;;;;;;;;;;22.47;58.79;99679.05;104053;278;114687;-70
2023/07/24 06:55:42;;;;;;;;;;;;;;;22.47;58.90;99669.86;104525;279;93838;-69
2023/07/24 06:58:14;;;;;;;;;;;;;;;22.49;58.48;99659.77;104526;278;98615;-67
2023/07/24 07:00:46;;;;;;;;;;;;;;;22.63;58.76;99657.27;104503;279;121491;-68
2023/07/24 07:03:18;;;;;;;;;;;;;;;22.91;59.36;99658.79;103950;280;105067;-68
2023/07/24 07:05:50;;;;;;;;;;;;;;;23.28;58.57;99659.89;104105;279;113864;-69
2023/07/24 07:08:24;;;;;;;;;;;;;;;23.79;58.17;99660.97;104525;279;95280;-69
2023/07/24 07:10:59;;;;;;;;;;;;;;;24.16;57.60;99654.17;104548;279;96787;-67
2023/07/24 07:13:31;;;;;;;;;;;;;;;24.41;56.51;99650.95;104143;279;121547;-52
2023/07/24 07:16:03;;;;;;;;;;;;;;;24.68;56.25;99646.91;104521;278;105826;-51
2023/07/24 07:18:35;;;;;;;;;;;;;;;25.19;55.44;99644.42;104103;279;114673;-53
2023/07/24 07:21:08;;;;;;;;;;;;;;;25.47;55.12;99647.90;104080;279;93278;-52
2023/07/24 07:23:40;;;;;;;;;;;;;;;25.83;54.46;99643.20;104086;278;97555;-54
2023/07/24 07:26:13;;;;;;;;;;;;;;;26.14;53.70;99643.34;104101;278;121727;-53
2023/07/24 07:28:45;;;;;;;;;;;;;;;26.28;52.43;99642.73;104091;278;104928;-56
2023/07/24 07:31:18;;;;;;;;;;;;;;;26.33;52.16;99647.04;104089;279;113281;-57
2023/07/24 07:33:50;;;;;;;;;;;;;;;26.40;51.59;99647.10;104113;279;93769;-54
2023/07/24 07:36:23;;;;;;;;;;;;;;;26.22;51.42;99649.23;103938;284;96946;-53
2023/07/24 07:38:55;;;;;;;;;;;;;;;26.00;51.46;99647.29;104122;279;121581;-51
2023/07/24 07:41:28;;;;;;;;;;;;;;;25.81;50.94;99648.08;104483;279;106032;-51
2023/07/24 07:44:00;;;;;;;;;;;;;;;25.60;50.69;99646.61;104100;279;114656;-53
2023/07/24 07:46:33;;;;;;;;;;;;;;;25.39;50.96;99642.73;104103;279;93503;-53
2023/07/24 07:49:05;;;;;;;;;;;;;;;25.31;51.30;99650.77;104528;279;96822;-53
2023/07/24 07:51:37;;;;;;;;;;;;;;;25.31;51.16;99647.80;104524;279;120782;-53
2023/07/24 07:54:09;;;;;;;;;;;;;;;25.38;51.16;99646.94;104513;279;105488;-52
2023/07/24 07:56:41;;;;;;;;;;;;;;;25.49;51.28;99648.77;104492;279;115363;-52
2023/07/24 07:59:13;;;;;;;;;;;;;;;25.53;50.89;99649.73;104086;279;94923;-52
2023/07/24 08:01:46;;;;;;;;;;;;;;;25.60;50.34;99653.38;104122;266;97691;-52
2023/07/24 08:04:18;;;;;;;;;;;;;;;25.59;50.64;99647.56;104070;278;121003;-54
2023/07/24 08:06:50;;;;;;;;;;;;;;;25.47;50.24;99650.34;104101;278;106294;-54
2023/07/24 08:09:24;;;;;;;;;;;;;;;25.31;49.77;99645.31;104523;279;114728;-52
2023/07/24 08:11:56;;;;;;;;;;;;;;;25.15;49.89;99644.38;104082;278;94871;-52
2023/07/24 08:14:28;;;;;;;;;;;;;;;25.06;50.26;99647.52;104095;278;97830;-52
2023/07/24 08:17:00;;;;;;;;;;;;;;;25.01;50.35;99646.99;103939;280;122049;-52
2023/07/24 08:19:32;;;;;;;;;;;;;;;25.01;50.56;99649.11;104502;278;104255;-54
2023/07/24 08:22:05;;;;;;;;;;;;;;;25.02;50.43;99649.16;104502;278;114738;-55
2023/07/24 08:24:38;;;;;;;;;;;;;;;25.03;50.47;99648.63;104524;278;93962;-55
2023/07/24 08:27:10;;;;;;;;;;;;;;;25.09;50.66;99645.80;104545;278;97429;-54
2023/07/24 08:29:42;;;;;;;;;;;;;;;25.31;50.98;99646.52;104548;279;120780;-56
2023/07/24 08:32:14;;;;;;;;;;;;;;;25.56;51.02;99645.58;104118;279;104313;-56
2023/07/24 08:34:47;;;;;;;;;;;;;;;25.82;50.98;99642.09;104118;278;114546;-52
2023/07/24 08:37:19;;;;;;;;;;;;;;;26.17;50.87;99634.38;104516;278;94563;-52
2023/07/24 08:39:51;;;;;;;;;;;;;;;26.63;50.40;99631.67;104122;278;97794;-56
2023/07/24 08:42:24;;;;;;;;;;;;;;;27.06;49.46;99625.84;104521;278;122289;-56
2023/07/24 08:44:57;;;;;;;;;;;;;;;27.29;48.47;99625.07;104513;278;105633;-56
2023/07/24 08:47:29;;;;;;;;;;;;;;;27.36;48.07;99630.98;104086;279;113855;-56
2023/07/24 08:50:02;;;;;;;;;;;;;;;27.41;47.65;99632.25;103958;280;95042;-56
2023/07/24 08:52:35;;;;;;;;;;;;;;;27.30;47.31;99633.48;104140;278;97789;-56
2023/07/24 08:55:09;;;;;;;;;;;;;;;27.08;46.80;99625.98;104079;266;120546;-52
2023/07/24 08:57:44;;;;;;;;;;;;;;;26.80;47.00;99624.02;104084;279;104499;-52
2023/07/24 09:00:17;;;;;;;;;;;;;;;26.61;47.04;99628.78;104079;282;114355;-55
2023/07/24 09:02:49;;;;;;;;;;;;;;;26.61;47.56;99626.88;104114;279;94108;-55
2023/07/24 09:05:22;;;;;;;;;;;;;;;26.78;48.05;99623.05;104139;279;97235;-54
2023/07/24 09:07:55;;;;;;;;;;;;;;;27.09;48.15;99618.73;104096;278;122885;-54
2023/07/24 09:10:29;;;;;;;;;;;;;;;27.62;47.75;99613.03;104095;279;104476;-54
2023/07/24 09:13:03;;;;;;;;;;;;;;;28.07;46.88;99604.89;104095;279;113005;-52
2023/07/24 09:15:44;;;;;;;;;;;;;;;28.45;46.09;99601.88;104531;279;94099;-52
2023/07/24 09:18:18;;;;;;;;;;;;;;;28.94;45.80;99594.52;104123;279;97784;-52
2023/07/24 09:20:55;;;;;;;;;;;;;;;29.31;45.08;99599.48;104107;279;120267;-54
2023/07/24 09:23:31;;;;;;;;;;;;;;;29.62;44.82;99598.98;104106;279;105494;-53
2023/07/24 09:26:08;;;;;;;;;;;;;;;30.00;44.23;99601.75;104523;279;113619;-51
2023/07/24 09:28:41;;;;;;;;;;;;;;;29.98;43.55;99593.47;104121;279;94968;-53
2023/07/24 09:31:14;;;;;;;;;;;;;;;29.92;43.86;99593.23;103984;280;97781;-53
2023/07/24 09:33:47;;;;;;;;;;;;;;;29.98;43.93;99595.63;104495;279;121914;-56
2023/07/24 09:36:19;;;;;;;;;;;;;;;29.96;43.38;99593.20;104092;278;104695;-56
2023/07/24 09:39:01;;;;;;;;;;;;;;;29.76;42.83;99596.16;104489;279;113334;-53
2023/07/24 09:41:33;;;;;;;;;;;;;;;29.53;43.38;99594.52;104039;278;93114;-53
2023/07/24 09:44:08;;;;;;;;;;;;;;;29.51;43.81;99592.70;104125;279;96815;-51
2023/07/24 09:46:41;;;;;;;;;;;;;;;29.56;43.21;99584.98;104107;278;122281;-51
2023/07/24 09:49:13;;;;;;;;;;;;;;;29.60;43.05;99572.58;104100;279;106104;-56
2023/07/24 09:51:49;;;;;;;;;;;;;;;29.68;42.93;99565.40;104498;279;113382;-55
2023/07/24 09:54:26;;;;;;;;;;;;;;;29.72;42.40;99558.34;104067;278;93617;-52
2023/07/24 09:57:00;;;;;;;;;;;;;;;29.76;42.38;99558.78;104148;278;97948;-53
2023/07/24 09:59:33;;;;;;;;;;;;;;;30.06;42.38;99556.40;104137;278;121493;-54
2023/07/24 10:02:07;;;;;;;;;;;;;;;30.12;42.03;99552.83;104102;279;107122;-52
2023/07/24 10:04:41;;;;;;;;;;;;;;;30.47;41.85;99544.83;104092;278;114080;-54
2023/07/24 10:07:14;;;;;;;;;;;;;;;30.54;41.34;99536.17;104079;279;93974;-54
2023/07/24 10:09:47;;;;;;;;;;;;;;;30.34;40.97;99539.17;104114;279;97088;-54
2023/07/24 10:12:20;;;;;;;;;;;;;;;30.23;41.29;99534.91;104493;279;121837;-53
2023/07/24 10:14:53;;;;;;;;;;;;;;;30.12;40.94;99531.38;104104;279;105507;-54
2023/07/24 10:17:38;;;;;;;;;;;;;;;29.87;40.66;99529.76;104076;279;114554;-54
2023/07/24 10:20:12;;;;;;;;;;;;;;;29.67;41.20;99530.62;104087;279;93768;-54
2023/07/24 10:22:45;;;;;;;;;;;;;;;29.57;41.32;99529.23;104116;279;97120;-54
2023/07/24 10:25:17;;;;;;;;;;;;;;;29.58;41.47;99524.84;104515;279;120199;-52
2023/07/24 10:27:51;;;;;;;;;;;;;;;29.63;41.39;99520.61;104515;279;106291;-62
2023/07/24 10:30:30;;;;;;;;;;;;;;;29.78;41.42;99519.88;104095;279;113776;-61
2023/07/24 10:33:11;;;;;;;;;;;;;;;29.89;41.38;99522.02;104070;279;94318;-61
2023/07/24 10:35:45;;;;;;;;;;;;;;;29.74;40.89;99514.05;104098;279;96631;-64
2023/07/24 10:38:19;;;;;;;;;;;;;;;29.67;41.10;99512.08;104140;279;121745;-61
2023/07/24 10:41:02;;;;;;;;;;;;;;;29.63;41.18;99507.97;104079;279;106415;-62
2023/07/24 10:43:46;;;;;;;;;;;;;;;29.61;41.19;99502.23;104137;279;115680;-62
2023/07/24 10:46:19;;;;;;;;;;;;;;;29.63;41.28;99495.86;104112;282;93469;-63
2023/07/24 10:48:52;;;;;;;;;;;;;;;29.67;40.76;99495.13;103933;279;96364;-61
2023/07/24 10:51:25;;;;;;;;;;;;;;;29.58;40.47;99491.83;103930;278;122743;-62
2023/07/24 10:53:57;;;;;;;;;;;;;;;29.39;40.27;99486.85;104095;278;106138;-63
2023/07/24 10:56:29;;;;;;;;;;;;;;;29.31;40.33;99482.29;104105;279;114599;-64
2023/07/24 10:59:06;;;;;;;;;;;;;;;29.21;40.62;99477.89;104075;279;94806;-63
2023/07/24 11:01:40;;;;;;;;;;;;;;;29.16;40.83;99480.38;104534;279;97189;-63
2023/07/24 11:04:13;;;;;;;;;;;;;;;29.21;40.86;99480.40;103972;279;121719;-61
2023/07/24 11:06:46;;;;;;;;;;;;;;;29.22;40.84;99476.10;104093;279;104849;-62
2023/07/24 11:09:18;;;;;;;;;;;;;;;29.42;40.99;99473.71;104086;279;115034;-63
2023/07/24 11:11:52;;;;;;;;;;;;;;;29.56;40.98;99470.34;104058;278;93833;-63
2023/07/24 11:14:24;;;;;;;;;;;;;;;29.71;41.15;99466.74;104532;278;97953;-64
2023/07/24 11:16:57;;;;;;;;;;;;;;;29.63;40.67;99462.28;104476;279;122720;-64
2023/07/24 11:19:29;;;;;;;;;;;;;;;29.40;40.68;99459.55;104093;279;103878;-63
2023/07/24 11:22:03;;;;;;;;;;;;;;;29.30;40.70;99456.89;104520;278;114146;-63
2023/07/24 11:24:42;;;;;;;;;;;;;;;29.19;40.65;99461.34;104090;279;95087;-64
2023/07/24 11:27:18;;;;;;;;;;;;;;;29.18;40.88;99463.79;104167;279;95472;-64
2023/07/24 11:29:54;;;;;;;;;;;;;;;29.50;41.35;99448.56;104145;279;120507;-64
2023/07/24 11:32:26;;;;;;;;;;;;;;;29.88;40.59;99448.71;104102;278;105579;-64
2023/07/24 11:34:59;;;;;;;;;;;;;;;30.14;40.00;99440.14;103924;280;114615;-62
2023/07/24 11:37:31;;;;;;;;;;;;;;;30.32;39.38;99436.59;104088;279;94589;-62
2023/07/24 11:40:09;;;;;;;;;;;;;;;30.31;38.85;99436.02;104126;279;96097;-63
2023/07/24 11:42:44;;;;;;;;;;;;;;;30.42;38.46;99435.86;104107;279;121793;-63
2023/07/24 11:45:16;;;;;;;;;;;;;;;30.56;38.34;99428.79;104113;279;106156;-62
2023/07/24 11:47:50;;;;;;;;;;;;;;;30.55;37.54;99426.77;104534;278;115039;-62
2023/07/24 11:50:22;;;;;;;;;;;;;;;30.47;37.63;99418.98;104111;278;95231;-61
2023/07/24 11:52:55;;;;;;;;;;;;;;;30.38;37.73;99420.69;104065;278;97748;-62
2023/07/24 11:55:34;;;;;;;;;;;;;;;30.18;37.45;99426.92;104104;278;122132;-58
2023/07/24 11:58:07;;;;;;;;;;;;;;;29.77;37.46;99423.05;104117;278;104687;-59
2023/07/24 12:00:39;;;;;;;;;;;;;;;29.49;37.81;99425.05;104460;279;113440;-58
2023/07/24 12:03:11;;;;;;;;;;;;;;;29.49;38.19;99415.75;104103;278;93973;-60
2023/07/24 12:05:44;;;;;;;;;;;;;;;29.58;38.33;99412.20;104099;278;98691;-59
2023/07/24 12:08:17;;;;;;;;;;;;;;;29.72;38.45;99406.00;104105;278;121801;-56
2023/07/24 12:10:49;;;;;;;;;;;;;;;29.78;38.36;99405.05;104113;278;106166;-57
2023/07/24 12:13:22;;;;;;;;;;;;;;;30.05;38.14;99398.97;104115;278;114136;-57
2023/07/24 12:15:55;;;;;;;;;;;;;;;30.31;37.87;99388.05;104082;278;92731;-56
2023/07/24 12:18:27;;;;;;;;;;;;;;;30.55;37.66;99376.19;104101;279;96554;-60
2023/07/24 12:20:59;;;;;;;;;;;;;;;30.48;37.49;99376.90;104095;278;121326;-61
2023/07/24 12:23:32;;;;;;;;;;;;;;;30.28;37.29;99374.34;104122;282;104975;-60
2023/07/24 12:26:04;;;;;;;;;;;;;;;30.10;37.16;99370.89;104121;278;113432;-61
2023/07/24 12:28:37;;;;;;;;;;;;;;;29.87;37.45;99372.20;104127;279;93839;-61
2023/07/24 12:31:09;;;;;;;;;;;;;;;29.91;37.67;99372.92;104519;279;97480;-62
2023/07/24 12:33:41;;;;;;;;;;;;;;;30.12;37.73;99365.79;104105;279;120556;-56
2023/07/24 12:36:13;;;;;;;;;;;;;;;30.34;37.69;99353.79;104063;279;105581;-55
2023/07/24 12:38:47;;;;;;;;;;;;;;;30.53;37.61;99356.53;104082;279;114474;-53
2023/07/24 12:41:19;;;;;;;;;;;;;;;30.67;37.52;99349.70;104091;279;93451;-53
2023/07/24 12:43:52;;;;;;;;;;;;;;;30.91;36.92;99337.36;104124;279;97405;-53
2023/07/24 12:46:24;;;;;;;;;;;;;;;31.08;36.74;99340.27;104073;279;121722;-53
2023/07/24 12:48:57;;;;;;;;;;;;;;;31.16;36.33;99334.53;104499;279;105483;-53
2023/07/24 12:51:29;;;;;;;;;;;;;;;31.11;36.37;99329.68;104477;279;115442;-54
2023/07/24 12:54:01;;;;;;;;;;;;;;;31.03;36.35;99333.35;104473;279;94424;-56
2023/07/24 12:56:34;;;;;;;;;;;;;;;30.97;36.33;99324.95;104110;279;98178;-57
2023/07/24 12:59:06;;;;;;;;;;;;;;;30.90;36.29;99330.52;104100;279;121344;-54
2023/07/24 13:01:39;;;;;;;;;;;;;;;30.89;36.15;99329.20;104486;279;104775;-54
2023/07/24 13:04:11;;;;;;;;;;;;;;;30.70;36.38;99329.15;104456;279;113872;-53
2023/07/24 13:06:43;;;;;;;;;;;;;;;30.58;36.25;99325.80;104440;279;95559;-54
2023/07/24 13:09:16;;;;;;;;;;;;;;;30.48;36.42;99321.30;104502;279;97753;-54